createdAt,value
2023-04-05T00:01:19.422Z,5.67
2023-04-05T00:03:46.649Z,6.10
2023-04-05T00:06:13.238Z,5.43
2023-04-05T00:08:40.387Z,5.67
2023-04-05T00:11:06.715Z,5.40
2023-04-05T00:13:33.569Z,5.83
2023-04-05T00:16:00.413Z,5.80
2023-04-05T00:18:26.596Z,6.03
2023-04-05T00:20:53.442Z,5.93
2023-04-05T00:23:20.440Z,6.17
2023-04-05T00:25:46.870Z,6.30
2023-04-05T00:28:13.113Z,5.97
2023-04-05T00:30:40.207Z,5.90
2023-04-05T00:33:06.564Z,5.77
2023-04-05T00:35:32.797Z,5.60
2023-04-05T00:37:59.035Z,5.23
2023-04-05T00:40:25.377Z,6.00
2023-04-05T00:42:51.644Z,5.80
2023-04-05T00:45:17.844Z,6.23
2023-04-05T00:47:44.848Z,5.90
2023-04-05T00:50:11.555Z,5.60
2023-04-05T00:52:37.818Z,5.93
2023-04-05T00:55:05.288Z,5.70
2023-04-05T00:57:32.714Z,5.70
2023-04-05T00:59:59.227Z,5.23
2023-04-05T01:02:28.951Z,5.13
2023-04-05T01:05:04.404Z,4.97
2023-04-05T01:07:38.061Z,5.80
2023-04-05T01:10:09.445Z,5.87
2023-04-05T01:12:37.274Z,4.83
2023-04-05T01:15:04.101Z,5.50
2023-04-05T01:17:36.099Z,5.37
2023-04-05T01:20:09.781Z,4.93
2023-04-05T01:23:17.605Z,5.77
2023-04-05T01:25:55.939Z,5.77
2023-04-05T01:29:19.255Z,5.43
2023-04-05T01:31:50.498Z,5.73
2023-04-05T01:34:22.994Z,5.53
2023-04-05T01:36:50.608Z,5.97
2023-04-05T01:39:20.495Z,5.33
2023-04-05T01:41:46.692Z,5.60
2023-04-05T01:44:12.898Z,5.67
2023-04-05T01:46:39.189Z,5.27
2023-04-05T01:49:06.186Z,5.37
2023-04-05T01:51:33.312Z,5.53
2023-04-05T01:53:59.569Z,5.83
2023-04-05T01:56:26.622Z,5.30
2023-04-05T01:58:52.850Z,5.23
2023-04-05T02:01:19.148Z,5.27
2023-04-05T02:03:45.757Z,5.60
2023-04-05T02:06:12.624Z,5.50
2023-04-05T02:08:38.871Z,5.20
2023-04-05T02:11:05.133Z,5.73
2023-04-05T02:13:31.420Z,4.87
2023-04-05T02:15:57.853Z,5.10
2023-04-05T02:18:29.773Z,5.43
2023-04-05T02:21:01.425Z,5.17
2023-04-05T02:23:29.773Z,5.23
2023-04-05T02:25:56.061Z,4.87
2023-04-05T02:28:22.239Z,5.33
2023-04-05T02:30:48.373Z,5.33
2023-04-05T02:33:14.556Z,4.97
2023-04-05T02:35:40.725Z,6.00
2023-04-05T02:38:07.026Z,5.60
2023-04-05T02:40:33.882Z,5.57
2023-04-05T02:43:00.243Z,5.57
2023-04-05T02:45:27.190Z,6.13
2023-04-05T02:47:53.702Z,5.80
2023-04-05T02:50:20.181Z,5.63
2023-04-05T02:52:46.979Z,5.60
2023-04-05T02:55:13.284Z,5.60
2023-04-05T02:57:40.593Z,5.40
2023-04-05T03:00:08.201Z,5.53
2023-04-05T03:02:36.902Z,5.13
2023-04-05T03:05:03.171Z,5.00
2023-04-05T03:07:29.753Z,5.53
2023-04-05T03:09:57.369Z,5.27
2023-04-05T03:12:23.591Z,5.90
2023-04-05T03:14:50.502Z,5.30
2023-04-05T03:17:16.647Z,5.20
2023-04-05T03:19:44.726Z,5.10
2023-04-05T03:22:10.954Z,4.93
2023-04-05T03:24:37.117Z,5.40
2023-04-05T03:27:05.342Z,5.33
2023-04-05T03:29:31.620Z,5.70
2023-04-05T03:31:58.585Z,6.13
2023-04-05T03:34:28.321Z,5.43
2023-04-05T03:36:54.717Z,5.70
2023-04-05T03:39:21.258Z,5.97
2023-04-05T03:41:47.497Z,7.13
2023-04-05T03:44:13.774Z,6.80
2023-04-05T03:46:40.328Z,6.90
2023-04-05T03:49:07.158Z,6.53
2023-04-05T03:51:33.294Z,6.27
2023-04-05T03:53:59.797Z,6.50
2023-04-05T03:56:26.526Z,6.70
2023-04-05T03:58:53.159Z,6.00
2023-04-05T04:01:19.944Z,5.93
2023-04-05T04:03:46.213Z,5.33
2023-04-05T04:06:13.340Z,5.80
2023-04-05T04:08:39.736Z,5.70
2023-04-05T04:11:06.529Z,5.40
2023-04-05T04:13:32.715Z,5.37
2023-04-05T04:15:59.004Z,5.57
2023-04-05T04:18:25.225Z,5.50
2023-04-05T04:20:51.969Z,5.20
2023-04-05T04:23:21.282Z,4.87
2023-04-05T04:25:49.812Z,5.50
2023-04-05T04:28:18.678Z,5.90
2023-04-05T04:30:45.898Z,5.60
2023-04-05T04:33:12.859Z,5.30
2023-04-05T04:35:39.573Z,5.40
2023-04-05T04:38:07.266Z,5.70
2023-04-05T04:40:38.057Z,6.00
2023-04-05T04:43:04.412Z,5.10
2023-04-05T04:45:33.899Z,5.50
2023-04-05T04:48:00.424Z,4.97
2023-04-05T04:50:26.971Z,5.70
2023-04-05T04:52:53.169Z,5.27
2023-04-05T04:55:24.474Z,5.90
2023-04-05T04:57:52.251Z,5.83
2023-04-05T05:00:19.986Z,5.70
2023-04-05T05:02:49.000Z,5.33
2023-04-05T05:05:15.335Z,5.47
2023-04-05T05:07:41.976Z,5.77
2023-04-05T05:10:09.285Z,5.10
2023-04-05T05:12:35.498Z,5.30
2023-04-05T05:15:02.487Z,5.23
2023-04-05T05:17:28.719Z,4.93
2023-04-05T05:19:56.425Z,5.37
2023-04-05T05:22:22.681Z,5.87
2023-04-05T05:24:48.903Z,4.93
2023-04-05T05:27:15.470Z,5.70
2023-04-05T05:29:42.723Z,5.30
2023-04-05T05:32:13.556Z,5.03
2023-04-05T05:34:40.991Z,5.10
2023-04-05T05:37:08.524Z,4.30
2023-04-05T05:39:34.882Z,5.10
2023-04-05T05:42:01.193Z,4.63
2023-04-05T05:44:28.267Z,5.13
2023-04-05T05:46:54.578Z,4.67
2023-04-05T05:49:22.907Z,5.20
2023-04-05T05:51:49.434Z,5.50
2023-04-05T05:54:16.026Z,5.07
2023-04-05T05:56:42.391Z,5.17
2023-04-05T05:59:08.692Z,5.17
2023-04-05T06:01:37.517Z,4.57
2023-04-05T06:04:03.891Z,4.40
2023-04-05T06:06:33.048Z,4.77
2023-04-05T06:08:59.372Z,4.53
2023-04-05T06:11:25.897Z,4.50
2023-04-05T06:13:54.177Z,4.80
2023-04-05T06:16:20.533Z,4.77
2023-04-05T06:18:46.935Z,4.90
2023-04-05T06:21:13.265Z,4.70
2023-04-05T06:23:41.292Z,4.50
2023-04-05T06:26:07.812Z,4.80
2023-04-05T06:28:33.978Z,4.73
2023-04-05T06:31:00.329Z,4.80
2023-04-05T06:33:26.872Z,4.70
2023-04-05T06:35:53.216Z,4.47
2023-04-05T06:38:19.536Z,5.17
2023-04-05T06:40:46.366Z,4.70
2023-04-05T06:43:12.585Z,4.90
2023-04-05T06:45:38.860Z,4.87
2023-04-05T06:48:05.321Z,4.50
2023-04-05T06:50:31.483Z,5.00
2023-04-05T06:52:57.674Z,4.00
2023-04-05T06:55:23.879Z,5.07
2023-04-05T06:57:50.748Z,4.60
2023-04-05T07:00:17.765Z,4.30
2023-04-05T07:02:44.153Z,4.33
2023-04-05T07:05:11.791Z,4.50
2023-04-05T07:07:39.396Z,4.90
2023-04-05T07:10:06.662Z,3.80
2023-04-05T07:12:32.845Z,4.37
2023-04-05T07:14:59.965Z,3.87
2023-04-05T07:17:27.319Z,3.97
2023-04-05T07:19:53.474Z,4.53
2023-04-05T07:22:19.618Z,4.00
2023-04-05T07:24:45.867Z,4.20
2023-04-05T07:27:12.008Z,3.90
2023-04-05T07:29:39.941Z,3.97
2023-04-05T07:32:06.957Z,4.37
2023-04-05T07:34:33.427Z,3.60
2023-04-05T07:36:59.822Z,3.90
2023-04-05T07:39:26.250Z,4.30
2023-04-05T07:41:52.423Z,3.63
2023-04-05T07:44:18.582Z,3.77
2023-04-05T07:46:49.221Z,4.10
2023-04-05T07:49:16.518Z,4.00
2023-04-05T07:51:42.942Z,3.90
2023-04-05T07:54:09.423Z,4.40
2023-04-05T07:56:37.003Z,3.90
2023-04-05T07:59:03.147Z,4.50
2023-04-05T08:01:30.406Z,3.93
2023-04-05T08:03:56.993Z,4.80
2023-04-05T08:06:24.185Z,4.53
2023-04-05T08:08:50.830Z,4.23
2023-04-05T08:11:17.009Z,4.03
2023-04-05T08:13:43.219Z,3.57
2023-04-05T08:16:09.704Z,4.03
2023-04-05T08:18:36.125Z,4.00
2023-04-05T08:21:02.322Z,4.03
2023-04-05T08:23:29.675Z,4.07
2023-04-05T08:25:55.973Z,4.00
2023-04-05T08:28:22.371Z,3.83
2023-04-05T08:30:53.920Z,4.30
2023-04-05T08:33:20.223Z,4.67
2023-04-05T08:35:46.415Z,4.93
2023-04-05T08:38:12.954Z,4.43
2023-04-05T08:40:42.297Z,4.20
2023-04-05T08:43:10.807Z,4.33
2023-04-05T08:45:43.358Z,4.03
2023-04-05T08:48:09.631Z,4.47
2023-04-05T08:50:35.938Z,4.83
2023-04-05T08:53:02.118Z,3.93
2023-04-05T08:55:28.486Z,4.13
2023-04-05T08:57:58.321Z,4.30
2023-04-05T09:00:24.924Z,4.50
2023-04-05T09:02:57.442Z,4.50
2023-04-05T09:05:24.224Z,4.53
2023-04-05T09:07:50.958Z,4.67
2023-04-05T09:10:18.969Z,4.53
2023-04-05T09:12:45.469Z,4.83
2023-04-05T09:15:13.896Z,4.33
2023-04-05T09:17:41.542Z,4.57
2023-04-05T09:20:08.275Z,5.07
2023-04-05T09:22:43.359Z,4.50
2023-04-05T09:25:09.701Z,4.97
2023-04-05T09:27:36.106Z,4.33
2023-04-05T09:30:02.366Z,4.70
2023-04-05T09:32:29.489Z,4.60
2023-04-05T09:35:00.359Z,5.63
2023-04-05T09:37:26.640Z,5.10
2023-04-05T09:40:02.544Z,5.20
2023-04-05T09:42:30.802Z,4.23
2023-04-05T09:45:00.621Z,4.43
2023-04-05T09:47:30.451Z,4.30
2023-04-05T09:49:57.915Z,4.90
2023-04-05T09:52:25.451Z,4.60
2023-04-05T09:54:52.997Z,4.80
2023-04-05T09:57:19.251Z,4.70
2023-04-05T09:59:46.180Z,4.40
2023-04-05T10:02:12.559Z,5.03
2023-04-05T10:04:39.857Z,4.50
2023-04-05T10:07:08.324Z,4.80
2023-04-05T10:09:35.591Z,4.70
2023-04-05T10:12:02.346Z,4.43
2023-04-05T10:14:28.587Z,4.50
2023-04-05T10:17:00.620Z,5.10
2023-04-05T10:19:29.259Z,4.67
2023-04-05T10:21:56.311Z,4.90
2023-04-05T10:24:34.256Z,4.77
2023-04-05T10:27:05.416Z,5.17
2023-04-05T10:29:38.384Z,4.60
2023-04-05T10:32:11.396Z,4.87
2023-04-05T10:34:42.915Z,5.00
2023-04-05T10:37:12.765Z,4.70
2023-04-05T10:39:40.817Z,4.80
2023-04-05T10:42:11.145Z,5.10
2023-04-05T10:44:39.156Z,5.10
2023-04-05T10:47:06.917Z,4.70
2023-04-05T10:49:36.833Z,5.37
2023-04-05T10:52:03.694Z,4.87
2023-04-05T10:54:32.863Z,5.07
2023-04-05T10:57:01.315Z,5.13
2023-04-05T10:59:27.830Z,5.40
2023-04-05T11:01:54.808Z,5.20
2023-04-05T11:04:21.214Z,5.33
2023-04-05T11:06:47.439Z,5.17
2023-04-05T11:09:16.157Z,5.07
2023-04-05T11:11:43.934Z,5.47
2023-04-05T11:14:18.921Z,5.30
2023-04-05T11:16:46.932Z,5.10
2023-04-05T11:19:13.748Z,5.13
2023-04-05T11:21:40.050Z,5.67
2023-04-05T11:24:07.740Z,4.87
2023-04-05T11:26:53.331Z,5.63
2023-04-05T11:29:48.245Z,5.40
2023-04-05T11:32:14.853Z,5.53
2023-04-05T11:34:44.810Z,5.53
2023-04-05T11:37:11.262Z,6.70
2023-04-05T11:39:38.611Z,5.27
2023-04-05T11:42:06.347Z,4.73
2023-04-05T11:44:44.389Z,5.33
2023-04-05T11:47:11.088Z,5.00
2023-04-05T11:49:38.306Z,5.30
2023-04-05T11:52:12.321Z,5.77
2023-04-05T11:54:44.837Z,5.27
2023-04-05T11:57:12.798Z,5.57
2023-04-05T11:59:39.151Z,5.47
2023-04-05T12:02:07.483Z,5.30
2023-04-05T12:04:34.059Z,5.37
2023-04-05T12:07:14.770Z,6.50
2023-04-05T12:10:04.450Z,5.60
2023-04-05T12:12:35.232Z,5.90
2023-04-05T12:15:01.940Z,5.50
2023-04-05T12:17:46.778Z,7.23
2023-04-05T12:20:14.290Z,5.87
2023-04-05T12:22:41.742Z,5.33
2023-04-05T12:25:08.855Z,6.13
2023-04-05T12:27:35.109Z,5.83
2023-04-05T12:30:10.059Z,6.07
2023-04-05T12:32:40.279Z,5.40
2023-04-05T12:35:11.102Z,6.10
2023-04-05T12:37:39.969Z,5.87
2023-04-05T12:40:07.330Z,6.13
2023-04-05T12:42:35.298Z,5.30
2023-04-05T12:45:05.952Z,5.40
2023-04-05T12:47:35.419Z,5.80
2023-04-05T12:50:12.965Z,5.50
2023-04-05T12:52:39.143Z,5.80
2023-04-05T12:55:14.834Z,5.90
2023-04-05T12:57:41.157Z,5.77
2023-04-05T13:00:10.154Z,5.83
2023-04-05T13:02:36.469Z,5.67
2023-04-05T13:05:02.723Z,6.17
2023-04-05T13:07:29.647Z,5.80
2023-04-05T13:09:55.810Z,5.73
2023-04-05T13:12:22.048Z,6.40
2023-04-05T13:14:48.352Z,5.50
2023-04-05T13:17:14.580Z,5.83
2023-04-05T13:19:40.805Z,6.87
2023-04-05T13:22:07.025Z,6.20
2023-04-05T13:24:33.886Z,6.30
2023-04-05T13:27:00.113Z,6.23
2023-04-05T13:29:26.300Z,6.47
2023-04-05T13:31:52.520Z,5.67
2023-04-05T13:34:18.729Z,6.13
2023-04-05T13:36:45.230Z,6.10
2023-04-05T13:39:11.431Z,6.20
2023-04-05T13:41:38.406Z,6.30
2023-04-05T13:44:06.417Z,6.13
2023-04-05T13:46:32.956Z,6.63
2023-04-05T13:48:59.279Z,6.53
2023-04-05T13:51:27.945Z,6.00
2023-04-05T13:53:54.276Z,6.67
2023-04-05T13:56:20.968Z,6.17
2023-04-05T13:58:47.819Z,6.63
2023-04-05T14:01:14.072Z,6.50
2023-04-05T14:03:40.469Z,6.00
2023-04-05T14:06:07.190Z,6.30
2023-04-05T14:08:33.387Z,6.30
2023-04-05T14:10:59.703Z,6.67
2023-04-05T14:13:25.966Z,6.40
2023-04-05T14:15:53.106Z,6.60
2023-04-05T14:18:19.505Z,6.57
2023-04-05T14:20:45.903Z,7.03
2023-04-05T14:23:12.541Z,7.03
2023-04-05T14:25:39.048Z,5.93
2023-04-05T14:28:05.583Z,6.10
2023-04-05T14:30:32.367Z,6.17
2023-04-05T14:32:59.368Z,6.33
2023-04-05T14:35:25.629Z,5.60
2023-04-05T14:37:51.949Z,6.70
2023-04-05T14:40:18.224Z,6.20
2023-04-05T14:42:49.395Z,5.70
2023-04-05T14:45:16.873Z,6.37
2023-04-05T14:47:43.280Z,6.23
2023-04-05T14:50:10.862Z,6.70
2023-04-05T14:52:39.097Z,6.70
2023-04-05T14:55:05.786Z,6.20
2023-04-05T14:57:32.263Z,6.47
2023-04-05T14:59:58.688Z,6.63
2023-04-05T15:02:25.077Z,6.53
2023-04-05T15:04:51.405Z,6.40
2023-04-05T15:07:18.440Z,6.77
2023-04-05T15:09:44.786Z,6.93
2023-04-05T15:12:11.145Z,6.53
2023-04-05T15:14:37.499Z,6.60
2023-04-05T15:17:03.920Z,6.73
2023-04-05T15:19:30.254Z,6.77
2023-04-05T15:21:56.696Z,6.37
2023-04-05T15:24:23.791Z,6.67
2023-04-05T15:26:50.129Z,6.97
2023-04-05T15:29:16.459Z,7.20
2023-04-05T15:31:42.783Z,6.73
2023-04-05T15:34:09.087Z,6.47
2023-04-05T15:36:35.410Z,6.40
2023-04-05T15:39:01.704Z,5.93
2023-04-05T15:41:28.859Z,6.33
2023-04-05T15:43:55.131Z,6.07
2023-04-05T15:46:21.482Z,6.63
2023-04-05T15:48:47.775Z,6.40
2023-04-05T15:51:14.084Z,6.50
2023-04-05T15:53:40.450Z,6.20
2023-04-05T15:56:06.897Z,6.40
2023-04-05T15:58:35.882Z,6.30
2023-04-05T16:01:02.257Z,6.47
2023-04-05T16:03:28.792Z,6.23
2023-04-05T16:05:55.130Z,6.23
2023-04-05T16:08:21.429Z,5.87
2023-04-05T16:10:47.767Z,6.27
2023-04-05T16:13:14.122Z,6.47
2023-04-05T16:15:41.217Z,5.57
2023-04-05T16:18:09.230Z,6.10
2023-04-05T16:20:35.899Z,6.87
2023-04-05T16:23:02.318Z,5.97
2023-04-05T16:25:28.842Z,6.00
2023-04-05T16:27:55.302Z,5.80
2023-04-05T16:30:21.615Z,5.80
2023-04-05T16:32:50.810Z,6.20
2023-04-05T16:35:17.432Z,5.83
2023-04-05T16:37:43.771Z,6.07
2023-04-05T16:40:11.116Z,5.57
2023-04-05T16:42:37.453Z,6.10
2023-04-05T16:45:04.576Z,6.23
2023-04-05T16:47:30.909Z,6.00
2023-04-05T16:49:57.970Z,6.50
2023-04-05T16:52:24.295Z,6.10
2023-04-05T16:54:50.644Z,6.27
2023-04-05T16:57:16.917Z,6.63
2023-04-05T16:59:43.257Z,6.17
2023-04-05T17:02:09.758Z,6.13
2023-04-05T17:04:37.569Z,6.27
2023-04-05T17:07:04.921Z,6.20
2023-04-05T17:09:32.312Z,6.57
2023-04-05T17:11:58.753Z,5.53
2023-04-05T17:14:25.313Z,6.20
2023-04-05T17:16:51.657Z,5.97
2023-04-05T17:19:17.984Z,5.53
2023-04-05T17:21:46.730Z,5.27
2023-04-05T17:24:13.882Z,6.00
2023-04-05T17:26:40.422Z,6.00
2023-04-05T17:29:06.939Z,6.10
2023-04-05T17:31:33.458Z,6.23
2023-04-05T17:33:59.964Z,5.83
2023-04-05T17:36:26.592Z,6.33
2023-04-05T17:38:53.000Z,6.03
2023-04-05T17:41:20.050Z,5.40
2023-04-05T17:43:46.542Z,5.70
2023-04-05T17:46:14.123Z,6.17
2023-04-05T17:48:40.507Z,5.70
2023-04-05T17:51:07.471Z,6.37
2023-04-05T17:53:33.995Z,5.80
2023-04-05T17:56:00.979Z,6.57
2023-04-05T17:58:29.490Z,6.80
2023-04-05T18:00:56.135Z,6.30
2023-04-05T18:03:22.943Z,6.07
2023-04-05T18:05:51.448Z,6.60
2023-04-05T18:08:17.854Z,5.87
2023-04-05T18:10:44.179Z,6.50
2023-04-05T18:13:10.818Z,6.80
2023-04-05T18:15:38.313Z,6.60
2023-04-05T18:18:05.144Z,6.40
2023-04-05T18:20:31.518Z,6.57
2023-04-05T18:22:57.923Z,6.73
2023-04-05T18:25:24.187Z,7.80
2023-04-05T18:27:50.554Z,7.20
2023-04-05T18:30:18.135Z,7.47
2023-04-05T18:32:45.617Z,7.47
2023-04-05T18:35:12.105Z,6.83
2023-04-05T18:37:38.659Z,8.07
2023-04-05T18:40:06.425Z,7.57
2023-04-05T18:42:33.037Z,7.90
2023-04-05T18:44:59.515Z,7.33
2023-04-05T18:47:25.942Z,8.10
2023-04-05T18:49:52.986Z,7.50
2023-04-05T18:52:23.006Z,7.57
2023-04-05T18:54:49.350Z,7.47
2023-04-05T18:57:15.749Z,7.90
2023-04-05T18:59:42.309Z,7.13
2023-04-05T19:02:08.764Z,8.07
2023-04-05T19:04:35.128Z,7.20
2023-04-05T19:07:02.162Z,7.63
2023-04-05T19:09:28.489Z,7.07
2023-04-05T19:11:55.726Z,7.70
2023-04-05T19:14:22.980Z,8.33
2023-04-05T19:16:49.435Z,7.47
2023-04-05T19:19:16.111Z,7.20
2023-04-05T19:21:42.520Z,7.17
2023-04-05T19:24:09.556Z,7.43
2023-04-05T19:26:36.992Z,7.80
2023-04-05T19:29:03.408Z,7.53
2023-04-05T19:31:29.869Z,7.90
2023-04-05T19:33:56.378Z,7.40
2023-04-05T19:36:22.739Z,7.60
2023-04-05T19:38:51.166Z,7.50
2023-04-05T19:41:18.956Z,8.53
2023-04-05T19:43:46.889Z,7.93
2023-04-05T19:46:15.860Z,7.17
2023-04-05T19:48:47.757Z,7.67
2023-04-05T19:51:17.309Z,7.43
2023-04-05T19:53:47.166Z,8.00
2023-04-05T19:56:19.568Z,7.87
2023-04-05T19:58:48.059Z,8.20
2023-04-05T20:01:32.460Z,8.37
2023-04-05T20:03:59.263Z,8.17
2023-04-05T20:06:26.574Z,8.40
2023-04-05T20:09:02.196Z,7.50
2023-04-05T20:11:30.207Z,7.83
2023-04-05T20:13:58.224Z,7.53
2023-04-05T20:16:26.570Z,7.57
2023-04-05T20:18:53.638Z,7.13
2023-04-05T20:21:20.141Z,7.47
2023-04-05T20:23:46.587Z,7.17
2023-04-05T20:26:14.651Z,6.77
2023-04-05T20:28:42.401Z,7.17
2023-04-05T20:31:10.097Z,7.20
2023-04-05T20:33:50.524Z,6.50
2023-04-05T20:36:19.049Z,6.77
2023-04-05T20:38:46.435Z,6.87
2023-04-05T20:41:13.372Z,6.83
2023-04-05T20:43:41.119Z,7.07
2023-04-05T20:46:08.036Z,7.43
2023-04-05T20:48:35.319Z,7.47
2023-04-05T20:51:02.906Z,7.10
2023-04-05T20:53:29.395Z,6.80
2023-04-05T20:55:55.846Z,6.50
2023-04-05T20:58:22.225Z,6.60
2023-04-05T21:00:49.425Z,5.57
2023-04-05T21:03:16.077Z,6.77
2023-04-05T21:05:42.499Z,6.33
2023-04-05T21:08:10.214Z,5.80
2023-04-05T21:10:36.761Z,6.53
2023-04-05T21:13:03.088Z,5.90
2023-04-05T21:15:30.932Z,5.80
2023-04-05T21:17:59.805Z,5.83
2023-04-05T21:20:27.202Z,5.80
2023-04-05T21:22:53.537Z,6.30
2023-04-05T21:25:19.818Z,6.30
2023-04-05T21:27:46.082Z,6.47
2023-04-05T21:30:13.656Z,6.53
2023-04-05T21:32:40.045Z,6.07
2023-04-05T21:35:08.438Z,5.93
2023-04-05T21:37:35.046Z,6.53
2023-04-05T21:40:03.104Z,6.80
2023-04-05T21:42:30.002Z,7.00
2023-04-05T21:44:56.389Z,8.53
2023-04-05T21:47:22.760Z,7.07
2023-04-05T21:49:49.172Z,7.30
2023-04-05T21:52:16.196Z,8.20
2023-04-05T21:54:42.514Z,8.30
2023-04-05T21:57:08.777Z,7.40
2023-04-05T21:59:35.161Z,8.03
2023-04-05T22:02:02.451Z,8.07
2023-04-05T22:04:29.176Z,7.00
2023-04-05T22:06:55.503Z,7.23
2023-04-05T22:09:22.429Z,6.90
2023-04-05T22:11:49.512Z,7.37
2023-04-05T22:14:16.089Z,7.43
2023-04-05T22:16:42.409Z,6.10
2023-04-05T22:19:10.778Z,6.90
2023-04-05T22:21:37.101Z,6.77
2023-04-05T22:24:03.577Z,6.90
2023-04-05T22:26:31.646Z,6.90
2023-04-05T22:28:58.182Z,7.30
2023-04-05T22:31:24.736Z,6.70
2023-04-05T22:33:51.399Z,6.67
2023-04-05T22:36:17.825Z,6.37
2023-04-05T22:38:44.141Z,6.87
2023-04-05T22:41:10.597Z,6.30
2023-04-05T22:43:37.545Z,6.73
2023-04-05T22:46:03.920Z,6.50
2023-04-05T22:48:30.430Z,7.03
2023-04-05T22:50:56.866Z,6.60
2023-04-05T22:53:23.939Z,6.70
2023-04-05T22:55:50.370Z,6.43
2023-04-05T22:58:16.877Z,7.10
2023-04-05T23:00:43.822Z,6.60
2023-04-05T23:03:10.161Z,6.93
2023-04-05T23:05:37.641Z,6.40
2023-04-05T23:08:04.563Z,7.47
2023-04-05T23:10:31.002Z,6.90
2023-04-05T23:12:57.292Z,7.83
2023-04-05T23:15:23.524Z,6.90
2023-04-05T23:17:50.596Z,7.03
2023-04-05T23:20:16.878Z,7.63
2023-04-05T23:22:43.150Z,6.83
2023-04-05T23:25:09.685Z,6.70
2023-04-05T23:27:36.073Z,7.10
2023-04-05T23:30:02.459Z,7.23
2023-04-05T23:32:29.090Z,7.00
2023-04-05T23:34:56.140Z,7.40
2023-04-05T23:37:22.448Z,7.40
2023-04-05T23:39:48.770Z,7.40
2023-04-05T23:42:15.690Z,7.03
2023-04-05T23:44:42.014Z,6.87
2023-04-05T23:47:08.248Z,7.30
2023-04-05T23:49:34.887Z,6.37
2023-04-05T23:52:01.985Z,7.87
2023-04-05T23:54:28.298Z,7.63
2023-04-05T23:56:56.707Z,7.23
2023-04-05T23:59:23.100Z,7.57
